Wetterdaten: Woche 22.09.08 - 28.09.08 (KW39)
Datum Zeit Temperatur Luftfeuchte Luftdruck Niederschlag Wind Richtung Sonnenschein Solar Taupunkt Windchill Windben
22.09.2008 00:00 6.4 C 91 % 1019.6 hPa 0.0 l/m 1.5 km/h (1 Bft) O 0.00 h 0 W/m 5.0 C 6.4 C 2.5 km/h (1 Bft)
22.09.2008 01:00 6.0 C 92 % 1019.3 hPa 0.0 l/m 0.7 km/h (0 Bft) O 0.00 h 0 W/m 4.8 C 6.0 C 1.7 km/h (1 Bft)
22.09.2008 02:00 5.7 C 94 % 1019.0 hPa 0.0 l/m 0.0 km/h (0 Bft) N 0.00 h 0 W/m 4.8 C 5.7 C 0.3 km/h (0 Bft)
22.09.2008 03:00 5.1 C 95 % 1018.6 hPa 0.0 l/m 0.8 km/h (0 Bft) O 0.00 h 0 W/m 4.4 C 5.0 C 1.7 km/h (1 Bft)
22.09.2008 04:00 4.5 C 96 % 1018.5 hPa 0.0 l/m 0.3 km/h (0 Bft) O 0.00 h 0 W/m 4.0 C 4.5 C 1.0 km/h (0 Bft)
22.09.2008 05:00 4.2 C 97 % 1018.5 hPa 0.0 l/m 1.2 km/h (1 Bft) O 0.00 h 0 W/m 3.8 C 4.2 C 2.2 km/h (1 Bft)
22.09.2008 06:00 4.2 C 98 % 1018.3 hPa 0.0 l/m 0.3 km/h (0 Bft) O 0.00 h 0 W/m 3.9 C 4.2 C 0.7 km/h (0 Bft)
22.09.2008 07:00 4.6 C 100 % 1018.7 hPa 0.0 l/m 0.2 km/h (0 Bft) O 0.00 h 16 W/m 4.6 C 4.6 C 0.7 km/h (0 Bft)
22.09.2008 08:00 4.6 C 100 % 1018.9 hPa 0.2 l/m 0.2 km/h (0 Bft) O 0.32 h 106 W/m 4.6 C 4.6 C 0.9 km/h (0 Bft)
22.09.2008 09:00 6.3 C 100 % 1018.9 hPa 0.0 l/m 0.2 km/h (0 Bft) O 0.58 h 221 W/m 6.3 C 6.3 C 1.1 km/h (0 Bft)
22.09.2008 10:00 10.2 C 85 % 1018.5 hPa 0.0 l/m 0.7 km/h (0 Bft) O 0.92 h 421 W/m 7.7 C 10.2 C 2.3 km/h (1 Bft)
22.09.2008 11:00 13.0 C 72 % 1018.0 hPa 0.0 l/m 2.3 km/h (1 Bft) W-NW 1.00 h 558 W/m 8.1 C 13.0 C 4.5 km/h (1 Bft)
22.09.2008 12:00 14.4 C 66 % 1017.3 hPa 0.0 l/m 3.4 km/h (1 Bft) O-SO 0.87 h 599 W/m 8.1 C 14.4 C 7.1 km/h (2 Bft)
22.09.2008 13:00 14.9 C 62 % 1016.9 hPa 0.0 l/m 4.1 km/h (1 Bft) N-NO 0.50 h 436 W/m 7.7 C 14.9 C 8.6 km/h (2 Bft)
22.09.2008 14:00 15.7 C 59 % 1016.5 hPa 0.0 l/m 4.5 km/h (1 Bft) O-SO 0.87 h 602 W/m 7.7 C 15.7 C 8.4 km/h (2 Bft)
22.09.2008 15:00 15.1 C 61 % 1016.4 hPa 0.0 l/m 7.6 km/h (2 Bft) O-SO 0.77 h 449 W/m 7.8 C 15.1 C 12.2 km/h (2 Bft)
22.09.2008 16:00 14.9 C 60 % 1015.9 hPa 0.0 l/m 4.6 km/h (1 Bft) O-SO 0.15 h 194 W/m 7.2 C 14.9 C 7.9 km/h (2 Bft)
22.09.2008 17:00 14.3 C 65 % 1015.8 hPa 0.0 l/m 2.7 km/h (1 Bft) O-SO 0.27 h 140 W/m 7.8 C 14.3 C 4.9 km/h (1 Bft)
22.09.2008 18:00 12.6 C 76 % 1016.2 hPa 0.0 l/m 4.1 km/h (1 Bft) N 0.00 h 16 W/m 8.5 C 12.6 C 6.8 km/h (2 Bft)
22.09.2008 19:00 11.6 C 82 % 1016.5 hPa 0.0 l/m 1.6 km/h (1 Bft) N-NW 0.00 h 6 W/m 8.6 C 11.6 C 3.6 km/h (1 Bft)
22.09.2008 20:00 11.3 C 84 % 1016.9 hPa 0.0 l/m 1.7 km/h (1 Bft) N-NW 0.00 h 0 W/m 8.7 C 11.3 C 3.9 km/h (1 Bft)
22.09.2008 21:00 11.3 C 77 % 1017.2 hPa 0.0 l/m 1.7 km/h (1 Bft) N-NO 0.00 h 0 W/m 7.3 C 11.3 C 4.2 km/h (1 Bft)
22.09.2008 22:00 10.9 C 75 % 1017.1 hPa 0.0 l/m 1.9 km/h (1 Bft) N-NO 0.00 h 0 W/m 6.7 C 10.9 C 4.7 km/h (1 Bft)
22.09.2008 23:00 10.2 C 78 % 1016.7 hPa 0.0 l/m 0.7 km/h (0 Bft) NO 0.00 h 0 W/m 6.5 C 10.2 C 2.4 km/h (1 Bft)
23.09.2008 00:00 9.7 C 81 % 1016.6 hPa 0.0 l/m 0.3 km/h (0 Bft) N-NO 0.00 h 0 W/m 6.6 C 9.7 C 1.8 km/h (1 Bft)
23.09.2008 01:00 9.1 C 87 % 1016.3 hPa 0.0 l/m 0.4 km/h (0 Bft) N-NO 0.00 h 0 W/m 7.0 C 9.1 C 1.4 km/h (1 Bft)
23.09.2008 02:00 8.7 C 91 % 1016.2 hPa 0.0 l/m 0.0 km/h (0 Bft) N-NO 0.00 h 0 W/m 7.4 C 8.7 C 0.2 km/h (0 Bft)
23.09.2008 03:00 8.6 C 93 % 1015.6 hPa 0.0 l/m 0.0 km/h (0 Bft) N-NO 0.00 h 0 W/m 7.6 C 8.6 C 0.1 km/h (0 Bft)
23.09.2008 04:00 8.2 C 96 % 1015.6 hPa 0.0 l/m 0.2 km/h (0 Bft) N-NO 0.00 h 0 W/m 7.7 C 8.2 C 0.9 km/h (0 Bft)
23.09.2008 05:00 8.3 C 97 % 1015.6 hPa 0.0 l/m 0.0 km/h (0 Bft) N 0.00 h 0 W/m 7.8 C 8.3 C 0.0 km/h (0 Bft)
23.09.2008 06:00 8.6 C 97 % 1015.8 hPa 0.0 l/m 0.2 km/h (0 Bft) N-NO 0.00 h 0 W/m 8.1 C 8.6 C 1.1 km/h (1 Bft)
23.09.2008 07:00 8.5 C 96 % 1016.0 hPa 0.0 l/m 0.2 km/h (0 Bft) N-NW 0.00 h 14 W/m 8.0 C 8.5 C 0.8 km/h (0 Bft)
23.09.2008 08:00 9.1 C 92 % 1016.4 hPa 0.0 l/m 0.3 km/h (0 Bft) N-NW 0.00 h 31 W/m 8.0 C 9.1 C 1.0 km/h (0 Bft)
23.09.2008 09:00 10.0 C 85 % 1016.3 hPa 0.0 l/m 0.4 km/h (0 Bft) NO 0.02 h 125 W/m 7.6 C 10.0 C 1.5 km/h (1 Bft)
23.09.2008 10:00 11.3 C 77 % 1016.6 hPa 0.0 l/m 1.9 km/h (1 Bft) O-NO 0.08 h 227 W/m 7.4 C 11.3 C 4.6 km/h (1 Bft)
23.09.2008 11:00 12.0 C 73 % 1016.5 hPa 0.0 l/m 3.0 km/h (1 Bft) O-NO 0.00 h 248 W/m 7.3 C 12.0 C 6.4 km/h (2 Bft)
23.09.2008 12:00 12.0 C 72 % 1016.3 hPa 0.0 l/m 2.9 km/h (1 Bft) N-NO 0.03 h 206 W/m 7.1 C 12.0 C 6.0 km/h (2 Bft)
23.09.2008 13:00 13.1 C 69 % 1016.2 hPa 0.0 l/m 3.0 km/h (1 Bft) N-NO 0.22 h 256 W/m 7.5 C 13.1 C 6.3 km/h (2 Bft)
23.09.2008 14:00 12.9 C 70 % 1016.0 hPa 0.0 l/m 2.0 km/h (1 Bft) N-NO 0.00 h 204 W/m 7.5 C 12.9 C 4.6 km/h (1 Bft)
23.09.2008 15:00 14.0 C 66 % 1015.5 hPa 0.0 l/m 2.8 km/h (1 Bft) O 0.55 h 374 W/m 7.7 C 14.0 C 6.0 km/h (2 Bft)
23.09.2008 16:00 15.0 C 59 % 1015.1 hPa 0.0 l/m 5.0 km/h (1 Bft) N 1.00 h 393 W/m 7.0 C 15.0 C 9.7 km/h (2 Bft)
23.09.2008 17:00 14.3 C 60 % 1015.1 hPa 0.0 l/m 2.3 km/h (1 Bft) O 0.90 h 234 W/m 6.6 C 14.3 C 5.3 km/h (1 Bft)
23.09.2008 18:00 13.5 C 63 % 1015.2 hPa 0.0 l/m 3.7 km/h (1 Bft) O-SO 0.02 h 55 W/m 6.6 C 13.5 C 5.8 km/h (2 Bft)
23.09.2008 19:00 11.9 C 73 % 1015.6 hPa 0.0 l/m 4.1 km/h (1 Bft) O-SO 0.03 h 11 W/m 7.2 C 11.9 C 5.5 km/h (1 Bft)
23.09.2008 20:00 10.3 C 82 % 1016.2 hPa 0.0 l/m 0.3 km/h (0 Bft) O-SO 0.00 h 0 W/m 7.3 C 10.3 C 0.8 km/h (0 Bft)
23.09.2008 21:00 9.1 C 86 % 1016.6 hPa 0.0 l/m 1.6 km/h (1 Bft) O-SO 0.00 h 0 W/m 6.9 C 9.1 C 2.9 km/h (1 Bft)
23.09.2008 22:00 8.0 C 89 % 1016.9 hPa 0.0 l/m 1.8 km/h (1 Bft) O-SO 0.00 h 0 W/m 6.3 C 8.0 C 3.0 km/h (1 Bft)
23.09.2008 23:00 6.9 C 92 % 1017.0 hPa 0.0 l/m 1.8 km/h (1 Bft) O-SO 0.00 h 0 W/m 5.7 C 6.9 C 3.1 km/h (1 Bft)
24.09.2008 00:00 6.6 C 93 % 1017.1 hPa 0.0 l/m 0.2 km/h (0 Bft) O-SO 0.00 h 0 W/m 5.6 C 6.6 C 0.6 km/h (0 Bft)
24.09.2008 01:00 6.1 C 96 % 1017.0 hPa 0.0 l/m 0.1 km/h (0 Bft) O-SO 0.00 h 0 W/m 5.5 C 6.1 C 0.7 km/h (0 Bft)
24.09.2008 02:00 5.6 C 97 % 1017.0 hPa 0.0 l/m 0.5 km/h (0 Bft) O-SO 0.00 h 0 W/m 5.1 C 5.6 C 1.7 km/h (1 Bft)
24.09.2008 03:00 5.4 C 97 % 1017.0 hPa 0.0 l/m 0.9 km/h (0 Bft) O 0.00 h 0 W/m 5.0 C 5.4 C 1.9 km/h (1 Bft)
24.09.2008 04:00 4.9 C 97 % 1017.1 hPa 0.0 l/m 0.2 km/h (0 Bft) O 0.00 h 0 W/m 4.5 C 4.9 C 0.5 km/h (0 Bft)
24.09.2008 05:00 4.6 C 98 % 1017.3 hPa 0.0 l/m 0.5 km/h (0 Bft) O 0.00 h 0 W/m 4.3 C 4.6 C 1.3 km/h (1 Bft)
24.09.2008 06:00 4.2 C 98 % 1017.9 hPa 0.0 l/m 0.4 km/h (0 Bft) O 0.00 h 0 W/m 3.9 C 4.2 C 1.3 km/h (1 Bft)
24.09.2008 07:00 3.9 C 98 % 1018.8 hPa 0.0 l/m 0.2 km/h (0 Bft) O 0.03 h 17 W/m 3.6 C 3.9 C 0.6 km/h (0 Bft)
24.09.2008 08:00 4.5 C 98 % 1019.4 hPa 0.0 l/m 0.0 km/h (0 Bft) N 0.00 h 60 W/m 4.3 C 4.5 C 0.1 km/h (0 Bft)
24.09.2008 09:00 6.1 C 98 % 1019.7 hPa 0.0 l/m 0.0 km/h (0 Bft) O 0.00 h 94 W/m 5.8 C 6.1 C 0.9 km/h (0 Bft)
24.09.2008 10:00 7.5 C 95 % 1020.2 hPa 0.0 l/m 0.5 km/h (0 Bft) S-SW 0.00 h 137 W/m 6.8 C 7.5 C 1.6 km/h (1 Bft)
24.09.2008 11:00 9.8 C 86 % 1020.3 hPa 0.0 l/m 3.7 km/h (1 Bft) O-SO 0.15 h 267 W/m 7.4 C 9.7 C 6.3 km/h (2 Bft)
24.09.2008 12:00 11.3 C 78 % 1019.9 hPa 0.2 l/m 6.8 km/h (2 Bft) O-SO 0.33 h 373 W/m 7.7 C 11.3 C 11.0 km/h (2 Bft)
24.09.2008 13:00 13.2 C 71 % 1019.7 hPa 0.0 l/m 6.8 km/h (2 Bft) O-SO 1.00 h 613 W/m 8.1 C 13.2 C 11.3 km/h (2 Bft)
24.09.2008 14:00 14.3 C 66 % 1019.4 hPa 0.0 l/m 6.1 km/h (2 Bft) O-SO 0.98 h 554 W/m 8.0 C 14.3 C 10.1 km/h (2 Bft)
24.09.2008 15:00 15.0 C 63 % 1019.3 hPa 0.0 l/m 5.1 km/h (1 Bft) O-SO 1.00 h 498 W/m 7.9 C 15.0 C 9.3 km/h (2 Bft)
24.09.2008 16:00 15.0 C 62 % 1019.1 hPa 0.0 l/m 5.7 km/h (1 Bft) SO 0.72 h 282 W/m 7.7 C 15.0 C 9.3 km/h (2 Bft)
24.09.2008 17:00 14.7 C 63 % 1019.4 hPa 0.0 l/m 4.1 km/h (1 Bft) SO 0.68 h 178 W/m 7.8 C 14.7 C 7.3 km/h (2 Bft)
24.09.2008 18:00 14.2 C 65 % 1019.9 hPa 0.0 l/m 0.5 km/h (0 Bft) O-SO 0.13 h 52 W/m 7.8 C 14.2 C 1.6 km/h (1 Bft)
24.09.2008 19:00 12.6 C 76 % 1020.6 hPa 0.0 l/m 2.0 km/h (1 Bft) O-SO 0.00 h 8 W/m 8.5 C 12.6 C 3.4 km/h (1 Bft)
24.09.2008 20:00 12.7 C 73 % 1021.1 hPa 0.0 l/m 1.4 km/h (1 Bft) O-NO 0.00 h 0 W/m 7.9 C 12.7 C 4.0 km/h (1 Bft)
24.09.2008 21:00 12.2 C 74 % 1021.6 hPa 0.0 l/m 0.9 km/h (0 Bft) NO 0.00 h 0 W/m 7.8 C 12.2 C 3.2 km/h (1 Bft)
24.09.2008 22:00 11.9 C 78 % 1021.9 hPa 0.0 l/m 2.0 km/h (1 Bft) N-NO 0.00 h 0 W/m 8.1 C 11.9 C 4.9 km/h (1 Bft)
24.09.2008 23:00 11.1 C 86 % 1022.1 hPa 0.2 l/m 1.5 km/h (1 Bft) NO 0.00 h 0 W/m 8.8 C 11.1 C 4.3 km/h (1 Bft)
25.09.2008 00:00 11.0 C 85 % 1022.1 hPa 0.0 l/m 1.0 km/h (0 Bft) N-NO 0.00 h 0 W/m 8.5 C 11.0 C 2.8 km/h (1 Bft)
25.09.2008 01:00 10.6 C 84 % 1022.0 hPa 0.0 l/m 1.5 km/h (1 Bft) N-NO 0.00 h 0 W/m 8.1 C 10.6 C 3.8 km/h (1 Bft)
25.09.2008 02:00 10.4 C 83 % 1021.9 hPa 0.0 l/m 1.1 km/h (1 Bft) NO 0.00 h 0 W/m 7.7 C 10.4 C 3.3 km/h (1 Bft)
25.09.2008 03:00 10.0 C 84 % 1021.9 hPa 0.0 l/m 2.0 km/h (1 Bft) NO 0.00 h 0 W/m 7.4 C 10.0 C 4.2 km/h (1 Bft)
25.09.2008 04:00 8.9 C 88 % 1022.1 hPa 0.0 l/m 0.9 km/h (0 Bft) O-SO 0.00 h 0 W/m 7.0 C 8.8 C 2.0 km/h (1 Bft)
25.09.2008 05:00 8.0 C 93 % 1022.5 hPa 0.0 l/m 0.1 km/h (0 Bft) O 0.00 h 0 W/m 6.9 C 8.0 C 0.5 km/h (0 Bft)
25.09.2008 06:00 7.9 C 94 % 1022.8 hPa 0.0 l/m 0.3 km/h (0 Bft) NO 0.00 h 0 W/m 7.0 C 7.9 C 1.1 km/h (0 Bft)
25.09.2008 07:00 8.2 C 93 % 1023.3 hPa 0.0 l/m 0.1 km/h (0 Bft) NO 0.00 h 12 W/m 7.2 C 8.2 C 0.5 km/h (0 Bft)
25.09.2008 08:00 9.1 C 93 % 1023.7 hPa 0.0 l/m 0.0 km/h (0 Bft) NO 0.00 h 27 W/m 8.1 C 9.1 C 0.3 km/h (0 Bft)
25.09.2008 09:00 10.4 C 89 % 1023.7 hPa 0.0 l/m 0.9 km/h (0 Bft) NO 0.00 h 108 W/m 8.6 C 10.4 C 2.4 km/h (1 Bft)
25.09.2008 10:00 12.0 C 79 % 1023.8 hPa 0.0 l/m 1.3 km/h (1 Bft) O-SO 0.08 h 171 W/m 8.5 C 12.0 C 3.6 km/h (1 Bft)
25.09.2008 11:00 11.8 C 80 % 1024.1 hPa 0.0 l/m 0.7 km/h (0 Bft) O-SO 0.00 h 103 W/m 8.4 C 11.8 C 2.2 km/h (1 Bft)
25.09.2008 12:00 12.0 C 80 % 1024.1 hPa 0.0 l/m 1.1 km/h (1 Bft) NO 0.00 h 136 W/m 8.7 C 12.0 C 3.2 km/h (1 Bft)
25.09.2008 13:00 12.3 C 80 % 1024.2 hPa 0.0 l/m 2.2 km/h (1 Bft) N 0.00 h 74 W/m 9.0 C 12.3 C 4.4 km/h (1 Bft)
25.09.2008 14:00 12.5 C 83 % 1024.3 hPa 0.0 l/m 3.8 km/h (1 Bft) N 0.00 h 177 W/m 9.6 C 12.5 C 7.3 km/h (2 Bft)
25.09.2008 15:00 12.5 C 84 % 1024.3 hPa 0.0 l/m 3.0 km/h (1 Bft) N-NO 0.00 h 93 W/m 9.9 C 12.5 C 5.8 km/h (2 Bft)
25.09.2008 16:00 12.7 C 83 % 1024.4 hPa 0.0 l/m 0.9 km/h (0 Bft) NO 0.00 h 77 W/m 9.9 C 12.7 C 2.7 km/h (1 Bft)
25.09.2008 17:00 12.7 C 80 % 1024.6 hPa 0.0 l/m 1.3 km/h (1 Bft) N-NO 0.00 h 67 W/m 9.4 C 12.7 C 3.5 km/h (1 Bft)
25.09.2008 18:00 12.5 C 79 % 1025.0 hPa 0.0 l/m 1.4 km/h (1 Bft) N-NO 0.00 h 21 W/m 8.9 C 12.5 C 4.1 km/h (1 Bft)
25.09.2008 19:00 11.6 C 81 % 1025.5 hPa 0.0 l/m 1.3 km/h (1 Bft) NO 0.00 h 6 W/m 8.5 C 11.6 C 3.6 km/h (1 Bft)
25.09.2008 20:00 11.5 C 81 % 1025.8 hPa 0.0 l/m 2.4 km/h (1 Bft) NO 0.00 h 0 W/m 8.3 C 11.5 C 5.9 km/h (2 Bft)
25.09.2008 21:00 11.3 C 83 % 1026.2 hPa 0.0 l/m 1.6 km/h (1 Bft) NO 0.00 h 0 W/m 8.6 C 11.3 C 4.3 km/h (1 Bft)
25.09.2008 22:00 11.1 C 85 % 1026.5 hPa 0.0 l/m 2.3 km/h (1 Bft) N-NO 0.00 h 0 W/m 8.6 C 11.1 C 5.4 km/h (1 Bft)
25.09.2008 23:00 11.2 C 83 % 1026.5 hPa 0.0 l/m 1.6 km/h (1 Bft) NO 0.00 h 0 W/m 8.5 C 11.2 C 4.4 km/h (1 Bft)
26.09.2008 00:00 11.1 C 82 % 1026.5 hPa 0.0 l/m 2.3 km/h (1 Bft) O-NO 0.00 h 0 W/m 8.2 C 11.1 C 5.6 km/h (1 Bft)
26.09.2008 01:00 11.2 C 80 % 1026.4 hPa 0.0 l/m 3.2 km/h (1 Bft) O 0.00 h 0 W/m 7.9 C 11.2 C 6.8 km/h (2 Bft)
26.09.2008 02:00 10.9 C 79 % 1026.4 hPa 0.0 l/m 4.2 km/h (1 Bft) NO 0.00 h 0 W/m 7.5 C 10.9 C 8.4 km/h (2 Bft)
26.09.2008 03:00 10.5 C 80 % 1026.4 hPa 0.0 l/m 4.1 km/h (1 Bft) NO 0.00 h 0 W/m 7.2 C 10.5 C 9.0 km/h (2 Bft)
26.09.2008 04:00 10.1 C 81 % 1026.6 hPa 0.0 l/m 3.5 km/h (1 Bft) NO 0.00 h 0 W/m 6.9 C 10.0 C 7.6 km/h (2 Bft)
26.09.2008 05:00 10.7 C 78 % 1026.5 hPa 0.0 l/m 4.4 km/h (1 Bft) NO 0.00 h 0 W/m 7.1 C 10.7 C 9.6 km/h (2 Bft)
26.09.2008 06:00 10.7 C 79 % 1026.9 hPa 0.0 l/m 4.6 km/h (1 Bft) N-NO 0.00 h 0 W/m 7.2 C 10.7 C 10.1 km/h (2 Bft)
26.09.2008 07:00 10.6 C 79 % 1027.2 hPa 0.0 l/m 4.8 km/h (1 Bft) N-NO 0.00 h 10 W/m 7.1 C 10.6 C 10.1 km/h (2 Bft)
26.09.2008 08:00 10.7 C 76 % 1027.9 hPa 0.0 l/m 3.7 km/h (1 Bft) NO 0.00 h 47 W/m 6.7 C 10.7 C 8.4 km/h (2 Bft)
26.09.2008 09:00 10.9 C 75 % 1028.1 hPa 0.0 l/m 4.6 km/h (1 Bft) O 0.00 h 88 W/m 6.7 C 10.9 C 10.3 km/h (2 Bft)
26.09.2008 10:00 11.4 C 73 % 1028.2 hPa 0.0 l/m 5.2 km/h (1 Bft) N-NO 0.02 h 178 W/m 6.7 C 11.4 C 11.0 km/h (2 Bft)
26.09.2008 11:00 12.2 C 70 % 1028.2 hPa 0.0 l/m 6.0 km/h (2 Bft) O 0.23 h 262 W/m 6.8 C 12.2 C 12.4 km/h (3 Bft)
26.09.2008 12:00 13.2 C 66 % 1027.9 hPa 0.0 l/m 6.9 km/h (2 Bft) NO 0.18 h 317 W/m 6.9 C 13.2 C 14.4 km/h (3 Bft)
26.09.2008 13:00 14.7 C 59 % 1027.5 hPa 0.0 l/m 7.3 km/h (2 Bft) O-SO 0.63 h 530 W/m 6.8 C 14.7 C 14.1 km/h (3 Bft)
26.09.2008 14:00 16.0 C 53 % 1027.2 hPa 0.0 l/m 9.7 km/h (2 Bft) O-SO 0.95 h 619 W/m 6.4 C 16.0 C 18.7 km/h (3 Bft)
26.09.2008 15:00 15.5 C 52 % 1027.7 hPa 0.0 l/m 7.0 km/h (2 Bft) O-SO 0.33 h 310 W/m 5.8 C 15.5 C 14.7 km/h (3 Bft)
26.09.2008 16:00 15.1 C 53 % 1027.6 hPa 0.0 l/m 5.3 km/h (1 Bft) O-SO 0.30 h 218 W/m 5.5 C 15.1 C 10.4 km/h (2 Bft)
26.09.2008 17:00 15.0 C 52 % 1027.8 hPa 0.0 l/m 7.0 km/h (2 Bft) O-SO 0.72 h 183 W/m 5.1 C 15.0 C 14.1 km/h (3 Bft)
26.09.2008 18:00 14.2 C 54 % 1028.0 hPa 0.0 l/m 4.6 km/h (1 Bft) O-SO 0.03 h 37 W/m 4.9 C 14.2 C 10.2 km/h (2 Bft)
26.09.2008 19:00 12.9 C 58 % 1028.6 hPa 0.0 l/m 3.4 km/h (1 Bft) NO 0.05 h 9 W/m 4.9 C 12.9 C 7.7 km/h (2 Bft)
26.09.2008 20:00 11.6 C 67 % 1029.2 hPa 0.0 l/m 2.9 km/h (1 Bft) NO 0.00 h 0 W/m 5.6 C 11.6 C 6.0 km/h (2 Bft)
26.09.2008 21:00 11.0 C 70 % 1029.4 hPa 0.0 l/m 2.2 km/h (1 Bft) O-NO 0.00 h 0 W/m 5.8 C 11.0 C 5.7 km/h (1 Bft)
26.09.2008 22:00 10.3 C 72 % 1029.4 hPa 0.0 l/m 1.6 km/h (1 Bft) O-NO 0.00 h 0 W/m 5.5 C 10.2 C 4.3 km/h (1 Bft)
26.09.2008 23:00 9.8 C 74 % 1029.4 hPa 0.0 l/m 2.0 km/h (1 Bft) NO 0.00 h 0 W/m 5.4 C 9.8 C 4.8 km/h (1 Bft)
27.09.2008 00:00 9.2 C 77 % 1029.1 hPa 0.0 l/m 3.4 km/h (1 Bft) N 0.00 h 0 W/m 5.4 C 9.0 C 6.8 km/h (2 Bft)
27.09.2008 01:00 8.2 C 80 % 1028.6 hPa 0.0 l/m 1.2 km/h (1 Bft) O-NO 0.00 h 0 W/m 5.0 C 8.1 C 3.1 km/h (1 Bft)
27.09.2008 02:00 7.2 C 84 % 1028.4 hPa 0.0 l/m 3.2 km/h (1 Bft) O 0.00 h 0 W/m 4.7 C 6.9 C 4.9 km/h (1 Bft)
27.09.2008 03:00 6.7 C 87 % 1028.3 hPa 0.0 l/m 3.4 km/h (1 Bft) O-SO 0.00 h 0 W/m 4.6 C 6.4 C 6.4 km/h (2 Bft)
27.09.2008 04:00 7.6 C 81 % 1028.2 hPa 0.0 l/m 1.7 km/h (1 Bft) O-SO 0.00 h 0 W/m 4.6 C 7.5 C 4.1 km/h (1 Bft)
27.09.2008 05:00 6.7 C 86 % 1028.3 hPa 0.0 l/m 1.2 km/h (1 Bft) O 0.00 h 0 W/m 4.6 C 6.7 C 3.2 km/h (1 Bft)
27.09.2008 06:00 6.9 C 86 % 1028.3 hPa 0.0 l/m 0.7 km/h (0 Bft) O 0.00 h 0 W/m 4.7 C 6.9 C 2.1 km/h (1 Bft)
27.09.2008 07:00 7.1 C 86 % 1028.6 hPa 0.0 l/m 0.9 km/h (0 Bft) NO 0.03 h 15 W/m 4.8 C 7.1 C 3.3 km/h (1 Bft)
27.09.2008 08:00 8.3 C 83 % 1028.9 hPa 0.0 l/m 1.8 km/h (1 Bft) NO 0.03 h 66 W/m 5.5 C 8.2 C 5.1 km/h (1 Bft)
27.09.2008 09:00 10.1 C 77 % 1028.8 hPa 0.0 l/m 5.0 km/h (1 Bft) O-SO 0.82 h 264 W/m 6.3 C 10.0 C 8.9 km/h (2 Bft)
27.09.2008 10:00 11.1 C 74 % 1028.7 hPa 0.0 l/m 10.5 km/h (2 Bft) O-SO 0.97 h 414 W/m 6.7 C 11.1 C 16.2 km/h (3 Bft)
27.09.2008 11:00 12.0 C 71 % 1028.4 hPa 0.0 l/m 7.3 km/h (2 Bft) O-SO 0.82 h 457 W/m 6.9 C 12.0 C 12.4 km/h (3 Bft)
27.09.2008 12:00 13.5 C 66 % 1027.7 hPa 0.0 l/m 6.0 km/h (2 Bft) O-SO 1.00 h 604 W/m 7.2 C 13.5 C 10.4 km/h (2 Bft)
27.09.2008 13:00 14.6 C 61 % 1027.1 hPa 0.0 l/m 9.3 km/h (2 Bft) O-SO 0.93 h 639 W/m 7.2 C 14.6 C 15.7 km/h (3 Bft)
27.09.2008 14:00 14.7 C 60 % 1026.4 hPa 0.0 l/m 6.3 km/h (2 Bft) O-SO 0.07 h 201 W/m 6.9 C 14.7 C 11.2 km/h (2 Bft)
27.09.2008 15:00 14.8 C 60 % 1026.1 hPa 0.0 l/m 2.8 km/h (1 Bft) O-SO 0.08 h 192 W/m 7.0 C 14.8 C 6.1 km/h (2 Bft)
27.09.2008 16:00 14.9 C 57 % 1026.1 hPa 0.0 l/m 2.7 km/h (1 Bft) O-SO 0.00 h 118 W/m 6.4 C 14.9 C 5.6 km/h (1 Bft)
27.09.2008 17:00 14.6 C 60 % 1026.1 hPa 0.0 l/m 0.3 km/h (0 Bft) O-SO 0.00 h 67 W/m 6.9 C 14.6 C 0.9 km/h (0 Bft)
27.09.2008 18:00 14.2 C 62 % 1025.8 hPa 0.0 l/m 0.1 km/h (0 Bft) O-SO 0.00 h 31 W/m 7.0 C 14.2 C 0.5 km/h (0 Bft)
27.09.2008 19:00 12.5 C 73 % 1026.1 hPa 0.0 l/m 1.3 km/h (1 Bft) O 0.00 h 7 W/m 7.8 C 12.5 C 3.1 km/h (1 Bft)
27.09.2008 20:00 12.3 C 72 % 1026.1 hPa 0.0 l/m 1.2 km/h (1 Bft) N-NO 0.00 h 0 W/m 7.5 C 12.3 C 3.8 km/h (1 Bft)
27.09.2008 21:00 12.4 C 68 % 1026.0 hPa 0.0 l/m 1.3 km/h (1 Bft) O-NO 0.00 h 0 W/m 6.7 C 12.4 C 3.6 km/h (1 Bft)
27.09.2008 22:00 11.1 C 72 % 1025.9 hPa 0.0 l/m 1.9 km/h (1 Bft) NO 0.00 h 0 W/m 6.2 C 11.0 C 4.8 km/h (1 Bft)
27.09.2008 23:00 8.8 C 82 % 1025.8 hPa 0.0 l/m 1.7 km/h (1 Bft) O-SO 0.00 h 0 W/m 5.9 C 8.8 C 2.9 km/h (1 Bft)
28.09.2008 00:00 7.7 C 86 % 1025.6 hPa 0.0 l/m 1.1 km/h (1 Bft) O-SO 0.00 h 0 W/m 5.6 C 7.7 C 1.8 km/h (1 Bft)
28.09.2008 01:00 6.6 C 91 % 1025.4 hPa 0.0 l/m 2.1 km/h (1 Bft) O-SO 0.00 h 0 W/m 5.2 C 6.5 C 3.5 km/h (1 Bft)
28.09.2008 02:00 5.8 C 93 % 1025.6 hPa 0.0 l/m 2.3 km/h (1 Bft) O 0.00 h 0 W/m 4.8 C 5.8 C 3.4 km/h (1 Bft)
28.09.2008 03:00 5.3 C 94 % 1025.5 hPa 0.0 l/m 3.0 km/h (1 Bft) O 0.00 h 0 W/m 4.3 C 5.1 C 4.6 km/h (1 Bft)
28.09.2008 04:00 4.6 C 95 % 1025.7 hPa 0.0 l/m 1.3 km/h (1 Bft) O-SO 0.00 h 0 W/m 3.9 C 4.6 C 2.8 km/h (1 Bft)
28.09.2008 05:00 4.1 C 97 % 1025.7 hPa 0.0 l/m 0.6 km/h (0 Bft) O-SO 0.00 h 0 W/m 3.6 C 4.0 C 1.0 km/h (0 Bft)
28.09.2008 06:00 3.8 C 98 % 1026.1 hPa 0.0 l/m 0.4 km/h (0 Bft) O-SO 0.00 h 0 W/m 3.6 C 3.8 C 1.4 km/h (1 Bft)
28.09.2008 07:00 4.4 C 100 % 1026.3 hPa 0.0 l/m 0.3 km/h (0 Bft) O-SO 0.00 h 9 W/m 4.4 C 4.4 C 1.4 km/h (1 Bft)
28.09.2008 08:00 4.9 C 100 % 1026.8 hPa 0.0 l/m 1.2 km/h (1 Bft) O-SO 0.00 h 41 W/m 4.9 C 4.8 C 2.7 km/h (1 Bft)
28.09.2008 09:00 5.4 C 100 % 1026.9 hPa 0.0 l/m 2.1 km/h (1 Bft) O-SO 0.00 h 89 W/m 5.4 C 5.2 C 3.6 km/h (1 Bft)
28.09.2008 10:00 6.4 C 100 % 1027.3 hPa 0.0 l/m 0.5 km/h (0 Bft) O-SO 0.18 h 183 W/m 6.4 C 6.4 C 1.6 km/h (1 Bft)
28.09.2008 11:00 8.5 C 96 % 1027.0 hPa 0.0 l/m 0.8 km/h (0 Bft) W 0.03 h 267 W/m 7.9 C 8.5 C 2.4 km/h (1 Bft)
28.09.2008 12:00 10.2 C 83 % 1026.6 hPa 0.0 l/m 1.4 km/h (1 Bft) SO 0.20 h 314 W/m 7.5 C 10.2 C 3.4 km/h (1 Bft)
28.09.2008 13:00 12.2 C 76 % 1025.8 hPa 0.0 l/m 1.8 km/h (1 Bft) SO 0.90 h 548 W/m 8.2 C 12.2 C 4.4 km/h (1 Bft)
28.09.2008 14:00 13.7 C 72 % 1024.8 hPa 0.0 l/m 1.8 km/h (1 Bft) O-SO 1.00 h 557 W/m 8.7 C 13.7 C 4.1 km/h (1 Bft)
28.09.2008 15:00 15.1 C 68 % 1024.0 hPa 0.0 l/m 3.0 km/h (1 Bft) W-NW 1.00 h 473 W/m 9.4 C 15.1 C 5.2 km/h (1 Bft)
28.09.2008 16:00 15.5 C 66 % 1023.4 hPa 0.0 l/m 1.9 km/h (1 Bft) W-NW 1.00 h 353 W/m 9.1 C 15.5 C 3.8 km/h (1 Bft)
28.09.2008 17:00 15.1 C 65 % 1023.1 hPa 0.0 l/m 1.6 km/h (1 Bft) O-SO 0.95 h 207 W/m 8.5 C 15.1 C 3.2 km/h (1 Bft)
28.09.2008 18:00 14.0 C 70 % 1023.1 hPa 0.0 l/m 1.5 km/h (1 Bft) O-SO 0.00 h 34 W/m 8.5 C 14.0 C 3.0 km/h (1 Bft)
28.09.2008 19:00 11.3 C 83 % 1023.2 hPa 0.0 l/m 3.2 km/h (1 Bft) O-SO 0.05 h 8 W/m 8.5 C 11.3 C 4.9 km/h (1 Bft)
28.09.2008 20:00 9.5 C 89 % 1023.5 hPa 0.0 l/m 1.4 km/h (1 Bft) O-SO 0.00 h 0 W/m 7.8 C 9.4 C 2.5 km/h (1 Bft)
28.09.2008 21:00 8.5 C 92 % 1023.9 hPa 0.0 l/m 1.4 km/h (1 Bft) O-SO 0.00 h 0 W/m 7.3 C 8.5 C 2.2 km/h (1 Bft)
28.09.2008 22:00 7.4 C 94 % 1024.0 hPa 0.0 l/m 1.0 km/h (0 Bft) O 0.00 h 0 W/m 6.5 C 7.4 C 2.1 km/h (1 Bft)
28.09.2008 23:00 6.7 C 96 % 1023.9 hPa 0.0 l/m 0.5 km/h (0 Bft) O 0.00 h 0 W/m 6.2 C 6.7 C 1.7 km/h (1 Bft)
Min-Datum _ 28.09.08 26.09.08 23.09.08 - 22.09.08 - - - 28.09.08 28.09.08 22.09.08
_ Min-Zeit 06:13 15:09 17:15 - 00:03 - - - 06:13 05:41 00:04
Minimum _ 3.4 C 49 % 1015.0 hPa - 0.0 km/h (0 Bft) - - - 3.0 C 2.6 C 0.0 km/h (0 Bft)
Max-Datum _ 22.09.08 22.09.08 26.09.08 22.09.08 26.09.08 - 22.09.08 23.09.08 28.09.08 22.09.08 26.09.08
_ Max-Zeit 14:41 07:20 23:00 08:34 14:49 - 08:32 13:08 14:59 14:41 15:32
Maximum _ 16.5 C 100 % 1029.6 hPa 0.2 l/m 24.3 km/h
O-SO (4 Bft)
- 0.02 h 872 W/m 10.3 C 16.6 C 38.2 km/h
O-SO (5 Bft)
Durchschnitt _ 10.3 C 80 % 1022.5 hPa #0.6 l/m 2.3 km/h (1 Bft) O-SO #27:43 h 212 W/m 6.8 C 10.3 C 4.8 km/h (1 Bft)
© Kaiko 2008